sensor_id;sensor_type;location;lat;lon;timestamp;pressure;altitude;pressure_sealevel;temperature;humidity
70198;BME280;57582;-34.876;138.628;2022-09-29T00:02:48;102202;;;15.16;54.14
70198;BME280;57582;-34.876;138.628;2022-09-29T00:05:51;102206;;;15.04;53.27
70198;BME280;57582;-34.876;138.628;2022-09-29T00:08:49;102199;;;15.35;53.44
70198;BME280;57582;-34.876;138.628;2022-09-29T00:11:52;102196;;;15.59;51.91
70198;BME280;57582;-34.876;138.628;2022-09-29T00:14:48;102191;;;15.82;50.50
70198;BME280;57582;-34.876;138.628;2022-09-29T00:17:49;102200;;;16.07;50.53
70198;BME280;57582;-34.876;138.628;2022-09-29T00:20:57;102204;;;16.20;51.83
70198;BME280;57582;-34.876;138.628;2022-09-29T00:23:49;102208;;;16.37;49.52
70198;BME280;57582;-34.876;138.628;2022-09-29T00:26:48;102207;;;16.51;49.51
70198;BME280;57582;-34.876;138.628;2022-09-29T00:29:49;102212;;;16.59;48.90
70198;BME280;57582;-34.876;138.628;2022-09-29T00:32:49;102214;;;16.02;49.58
70198;BME280;57582;-34.876;138.628;2022-09-29T00:35:56;102206;;;15.70;51.75
70198;BME280;57582;-34.876;138.628;2022-09-29T00:38:49;102211;;;15.97;50.86
70198;BME280;57582;-34.876;138.628;2022-09-29T00:41:49;102219;;;16.27;51.21
70198;BME280;57582;-34.876;138.628;2022-09-29T00:47:50;102217;;;16.29;49.53
70198;BME280;57582;-34.876;138.628;2022-09-29T00:50:49;102206;;;16.43;48.39
70198;BME280;57582;-34.876;138.628;2022-09-29T00:53:49;102210;;;16.51;51.29
70198;BME280;57582;-34.876;138.628;2022-09-29T00:56:49;102200;;;17.04;51.47
70198;BME280;57582;-34.876;138.628;2022-09-29T01:00:07;102201;;;17.18;50.17
70198;BME280;57582;-34.876;138.628;2022-09-29T01:02:52;102201;;;17.27;47.06
70198;BME280;57582;-34.876;138.628;2022-09-29T01:05:50;102201;;;16.65;47.59
70198;BME280;57582;-34.876;138.628;2022-09-29T01:08:52;102189;;;17.00;48.26
70198;BME280;57582;-34.876;138.628;2022-09-29T01:11:48;102150;;;16.87;46.42
70198;BME280;57582;-34.876;138.628;2022-09-29T01:14:48;102175;;;17.11;47.78
70198;BME280;57582;-34.876;138.628;2022-09-29T01:17:50;102184;;;17.30;47.58
70198;BME280;57582;-34.876;138.628;2022-09-29T01:30:05;102171;;;17.21;47.25
70198;BME280;57582;-34.876;138.628;2022-09-29T01:41:50;102152;;;17.75;44.80
70198;BME280;57582;-34.876;138.628;2022-09-29T01:44:51;102151;;;17.57;47.84
70198;BME280;57582;-34.876;138.628;2022-09-29T01:47:50;102141;;;17.77;48.64
70198;BME280;57582;-34.876;138.628;2022-09-29T01:50:50;102146;;;17.90;48.05
70198;BME280;57582;-34.876;138.628;2022-09-29T01:53:50;102099;;;17.65;48.56
70198;BME280;57582;-34.876;138.628;2022-09-29T01:56:50;102151;;;17.86;48.73
70198;BME280;57582;-34.876;138.628;2022-09-29T02:02:52;102128;;;17.64;48.79
70198;BME280;57582;-34.876;138.628;2022-09-29T02:05:51;102132;;;17.60;48.70
70198;BME280;57582;-34.876;138.628;2022-09-29T02:08:50;102137;;;17.63;48.93
70198;BME280;57582;-34.876;138.628;2022-09-29T02:11:49;102135;;;17.67;49.53
70198;BME280;57582;-34.876;138.628;2022-09-29T02:14:49;102137;;;17.66;48.96
70198;BME280;57582;-34.876;138.628;2022-09-29T02:17:49;102128;;;17.69;48.76
70198;BME280;57582;-34.876;138.628;2022-09-29T02:20:49;102127;;;17.76;47.45
70198;BME280;57582;-34.876;138.628;2022-09-29T02:23:50;102129;;;17.65;48.53
70198;BME280;57582;-34.876;138.628;2022-09-29T02:26:49;102135;;;17.65;48.63
70198;BME280;57582;-34.876;138.628;2022-09-29T02:29:49;102130;;;17.68;47.48
70198;BME280;57582;-34.876;138.628;2022-09-29T02:32:49;102133;;;17.64;49.47
70198;BME280;57582;-34.876;138.628;2022-09-29T02:41:52;102130;;;17.73;51.04
70198;BME280;57582;-34.876;138.628;2022-09-29T02:48:00;102120;;;17.80;50.86
70198;BME280;57582;-34.876;138.628;2022-09-29T02:50:51;102118;;;17.96;50.82
70198;BME280;57582;-34.876;138.628;2022-09-29T02:56:55;102117;;;17.90;50.89
70198;BME280;57582;-34.876;138.628;2022-09-29T02:59:59;102113;;;18.00;50.90
70198;BME280;57582;-34.876;138.628;2022-09-29T03:02:49;102116;;;18.20;50.44
70198;BME280;57582;-34.876;138.628;2022-09-29T03:05:49;102109;;;18.35;48.72
70198;BME280;57582;-34.876;138.628;2022-09-29T03:08:49;102095;;;18.26;48.42
70198;BME280;57582;-34.876;138.628;2022-09-29T03:11:49;102090;;;18.35;48.80
70198;BME280;57582;-34.876;138.628;2022-09-29T03:14:49;102084;;;18.43;46.79
70198;BME280;57582;-34.876;138.628;2022-09-29T03:17:49;102074;;;18.42;48.25
70198;BME280;57582;-34.876;138.628;2022-09-29T03:20:49;102070;;;18.50;48.28
70198;BME280;57582;-34.876;138.628;2022-09-29T03:23:49;102074;;;18.14;47.25
70198;BME280;57582;-34.876;138.628;2022-09-29T03:26:49;102071;;;18.03;47.89
70198;BME280;57582;-34.876;138.628;2022-09-29T03:29:49;102066;;;18.06;47.01
70198;BME280;57582;-34.876;138.628;2022-09-29T03:32:49;102064;;;18.04;47.29
70198;BME280;57582;-34.876;138.628;2022-09-29T03:35:49;102057;;;18.11;46.21
70198;BME280;57582;-34.876;138.628;2022-09-29T03:38:49;102051;;;18.19;46.54
70198;BME280;57582;-34.876;138.628;2022-09-29T03:41:49;102044;;;18.37;48.35
70198;BME280;57582;-34.876;138.628;2022-09-29T03:44:49;102038;;;18.58;45.69
70198;BME280;57582;-34.876;138.628;2022-09-29T03:47:49;102036;;;18.80;44.33
70198;BME280;57582;-34.876;138.628;2022-09-29T03:50:49;102034;;;19.16;45.09
70198;BME280;57582;-34.876;138.628;2022-09-29T03:53:49;102021;;;19.42;44.22
70198;BME280;57582;-34.876;138.628;2022-09-29T03:56:49;102014;;;19.79;44.23
70198;BME280;57582;-34.876;138.628;2022-09-29T03:59:49;102013;;;19.85;44.19
70198;BME280;57582;-34.876;138.628;2022-09-29T04:02:49;102013;;;20.37;42.81
70198;BME280;57582;-34.876;138.628;2022-09-29T04:05:49;102013;;;20.25;42.24
70198;BME280;57582;-34.876;138.628;2022-09-29T04:08:49;102018;;;19.55;43.05
70198;BME280;57582;-34.876;138.628;2022-09-29T04:11:49;102009;;;19.56;44.70
70198;BME280;57582;-34.876;138.628;2022-09-29T04:14:49;101994;;;19.63;43.64
70198;BME280;57582;-34.876;138.628;2022-09-29T04:17:49;101995;;;19.54;42.82
70198;BME280;57582;-34.876;138.628;2022-09-29T04:20:49;102002;;;19.55;42.58
70198;BME280;57582;-34.876;138.628;2022-09-29T04:23:49;101993;;;19.70;43.42
70198;BME280;57582;-34.876;138.628;2022-09-29T04:26:49;101967;;;20.01;43.95
70198;BME280;57582;-34.876;138.628;2022-09-29T04:29:49;101981;;;19.85;44.59
70198;BME280;57582;-34.876;138.628;2022-09-29T04:32:49;101980;;;19.55;43.84
70198;BME280;57582;-34.876;138.628;2022-09-29T04:35:49;101980;;;18.30;46.84
70198;BME280;57582;-34.876;138.628;2022-09-29T04:38:49;101977;;;18.01;48.12
70198;BME280;57582;-34.876;138.628;2022-09-29T04:41:49;101983;;;17.95;49.16
70198;BME280;57582;-34.876;138.628;2022-09-29T04:44:49;101968;;;18.32;49.62
70198;BME280;57582;-34.876;138.628;2022-09-29T04:47:49;101964;;;18.66;47.40
70198;BME280;57582;-34.876;138.628;2022-09-29T04:50:49;101962;;;18.83;46.73
70198;BME280;57582;-34.876;138.628;2022-09-29T04:53:49;101956;;;18.76;47.11
70198;BME280;57582;-34.876;138.628;2022-09-29T04:56:49;101951;;;18.26;46.56
70198;BME280;57582;-34.876;138.628;2022-09-29T04:59:49;101951;;;17.90;51.01
70198;BME280;57582;-34.876;138.628;2022-09-29T05:02:49;101941;;;18.34;49.27
70198;BME280;57582;-34.876;138.628;2022-09-29T05:05:53;101942;;;18.38;48.55
70198;BME280;57582;-34.876;138.628;2022-09-29T05:08:49;101937;;;18.64;46.31
70198;BME280;57582;-34.876;138.628;2022-09-29T05:11:49;101945;;;18.64;47.40
70198;BME280;57582;-34.876;138.628;2022-09-29T05:14:49;101948;;;18.84;46.84
70198;BME280;57582;-34.876;138.628;2022-09-29T05:17:49;101943;;;18.58;45.88
70198;BME280;57582;-34.876;138.628;2022-09-29T05:20:49;101938;;;18.68;46.58
70198;BME280;57582;-34.876;138.628;2022-09-29T05:23:49;101943;;;18.73;46.91
70198;BME280;57582;-34.876;138.628;2022-09-29T05:26:49;101943;;;18.54;45.52
70198;BME280;57582;-34.876;138.628;2022-09-29T05:29:49;101936;;;18.51;44.99
70198;BME280;57582;-34.876;138.628;2022-09-29T05:32:49;101941;;;18.70;46.15
70198;BME280;57582;-34.876;138.628;2022-09-29T05:35:49;101944;;;18.70;45.66
70198;BME280;57582;-34.876;138.628;2022-09-29T05:38:49;101944;;;18.94;44.23
70198;BME280;57582;-34.876;138.628;2022-09-29T05:41:50;101945;;;18.64;45.55
70198;BME280;57582;-34.876;138.628;2022-09-29T05:44:49;101942;;;18.58;46.42
70198;BME280;57582;-34.876;138.628;2022-09-29T05:47:49;101953;;;18.95;44.07
70198;BME280;57582;-34.876;138.628;2022-09-29T05:50:49;101951;;;18.63;44.42
70198;BME280;57582;-34.876;138.628;2022-09-29T05:53:50;101953;;;18.66;45.40
70198;BME280;57582;-34.876;138.628;2022-09-29T05:56:49;101946;;;18.54;46.11
70198;BME280;57582;-34.876;138.628;2022-09-29T05:59:50;101942;;;18.85;43.79
70198;BME280;57582;-34.876;138.628;2022-09-29T06:02:49;101949;;;19.17;45.54
70198;BME280;57582;-34.876;138.628;2022-09-29T06:05:49;101956;;;19.51;43.79
70198;BME280;57582;-34.876;138.628;2022-09-29T06:08:49;101951;;;19.61;44.48
70198;BME280;57582;-34.876;138.628;2022-09-29T06:11:49;101947;;;19.37;42.08
70198;BME280;57582;-34.876;138.628;2022-09-29T06:14:49;101951;;;19.28;43.94
70198;BME280;57582;-34.876;138.628;2022-09-29T06:17:57;101941;;;19.45;43.99
70198;BME280;57582;-34.876;138.628;2022-09-29T06:20:49;101943;;;19.40;43.37
70198;BME280;57582;-34.876;138.628;2022-09-29T06:23:50;101940;;;19.49;43.79
70198;BME280;57582;-34.876;138.628;2022-09-29T06:26:49;101936;;;19.66;43.04
70198;BME280;57582;-34.876;138.628;2022-09-29T06:29:49;101942;;;19.68;43.40
70198;BME280;57582;-34.876;138.628;2022-09-29T06:32:49;101951;;;19.60;42.88
70198;BME280;57582;-34.876;138.628;2022-09-29T06:35:49;101943;;;19.68;43.26
70198;BME280;57582;-34.876;138.628;2022-09-29T06:38:49;101944;;;19.50;41.94
70198;BME280;57582;-34.876;138.628;2022-09-29T06:41:50;101948;;;19.74;42.50
70198;BME280;57582;-34.876;138.628;2022-09-29T06:44:49;101957;;;19.93;42.09
70198;BME280;57582;-34.876;138.628;2022-09-29T06:47:49;101958;;;20.15;40.93
70198;BME280;57582;-34.876;138.628;2022-09-29T06:50:49;101956;;;19.57;40.77
70198;BME280;57582;-34.876;138.628;2022-09-29T06:53:50;101969;;;19.32;41.85
70198;BME280;57582;-34.876;138.628;2022-09-29T06:56:50;101965;;;19.43;42.43
70198;BME280;57582;-34.876;138.628;2022-09-29T06:59:49;101942;;;19.42;42.36
70198;BME280;57582;-34.876;138.628;2022-09-29T07:02:49;101973;;;19.62;41.66
70198;BME280;57582;-34.876;138.628;2022-09-29T07:05:49;101962;;;19.62;41.65
70198;BME280;57582;-34.876;138.628;2022-09-29T07:08:52;101968;;;19.59;40.93
70198;BME280;57582;-34.876;138.628;2022-09-29T07:11:50;101969;;;19.72;41.55
70198;BME280;57582;-34.876;138.628;2022-09-29T07:14:49;101972;;;19.77;42.21
70198;BME280;57582;-34.876;138.628;2022-09-29T07:17:50;101966;;;19.79;40.88
70198;BME280;57582;-34.876;138.628;2022-09-29T07:20:50;101971;;;19.56;42.52
70198;BME280;57582;-34.876;138.628;2022-09-29T07:23:49;101969;;;19.75;42.10
70198;BME280;57582;-34.876;138.628;2022-09-29T07:26:49;101971;;;19.82;41.71
70198;BME280;57582;-34.876;138.628;2022-09-29T07:29:50;101974;;;19.48;42.37
70198;BME280;57582;-34.876;138.628;2022-09-29T07:32:49;101985;;;19.48;42.74
70198;BME280;57582;-34.876;138.628;2022-09-29T07:35:53;101987;;;19.14;43.19
70198;BME280;57582;-34.876;138.628;2022-09-29T07:38:50;101989;;;18.69;43.33
70198;BME280;57582;-34.876;138.628;2022-09-29T07:41:50;101992;;;18.37;44.49
70198;BME280;57582;-34.876;138.628;2022-09-29T07:44:49;101990;;;18.42;44.30
70198;BME280;57582;-34.876;138.628;2022-09-29T07:47:49;101990;;;18.26;44.56
70198;BME280;57582;-34.876;138.628;2022-09-29T07:50:49;102001;;;18.31;44.71
70198;BME280;57582;-34.876;138.628;2022-09-29T07:53:50;102000;;;18.35;44.92
70198;BME280;57582;-34.876;138.628;2022-09-29T07:56:50;102011;;;18.37;45.01
70198;BME280;57582;-34.876;138.628;2022-09-29T07:59:49;102010;;;18.44;44.85
70198;BME280;57582;-34.876;138.628;2022-09-29T08:02:50;102018;;;18.38;44.73
70198;BME280;57582;-34.876;138.628;2022-09-29T08:05:50;102030;;;18.30;44.64
70198;BME280;57582;-34.876;138.628;2022-09-29T08:08:50;102029;;;18.04;44.95
70198;BME280;57582;-34.876;138.628;2022-09-29T08:11:49;102036;;;17.82;45.27
70198;BME280;57582;-34.876;138.628;2022-09-29T08:14:49;102043;;;17.62;46.38
70198;BME280;57582;-34.876;138.628;2022-09-29T08:17:51;102043;;;17.65;46.74
70198;BME280;57582;-34.876;138.628;2022-09-29T08:20:49;102044;;;17.56;46.93
70198;BME280;57582;-34.876;138.628;2022-09-29T08:23:49;102052;;;17.56;47.61
70198;BME280;57582;-34.876;138.628;2022-09-29T08:26:49;102052;;;17.48;47.47
70198;BME280;57582;-34.876;138.628;2022-09-29T08:29:49;102048;;;17.30;47.87
70198;BME280;57582;-34.876;138.628;2022-09-29T08:32:51;102061;;;16.34;50.25
70198;BME280;57582;-34.876;138.628;2022-09-29T08:35:57;102077;;;16.08;51.31
70198;BME280;57582;-34.876;138.628;2022-09-29T08:38:50;102074;;;16.13;51.79
70198;BME280;57582;-34.876;138.628;2022-09-29T08:44:52;102086;;;15.86;52.10
70198;BME280;57582;-34.876;138.628;2022-09-29T08:47:49;102093;;;15.93;52.47
70198;BME280;57582;-34.876;138.628;2022-09-29T08:51:06;102087;;;15.67;53.09
70198;BME280;57582;-34.876;138.628;2022-09-29T08:53:50;102091;;;15.78;52.93
70198;BME280;57582;-34.876;138.628;2022-09-29T08:56:50;102100;;;15.83;52.65
70198;BME280;57582;-34.876;138.628;2022-09-29T08:59:53;102108;;;15.84;52.84
70198;BME280;57582;-34.876;138.628;2022-09-29T09:03:22;102103;;;15.89;52.43
70198;BME280;57582;-34.876;138.628;2022-09-29T09:05:57;102100;;;15.88;53.01
70198;BME280;57582;-34.876;138.628;2022-09-29T09:14:52;102112;;;16.27;51.87
70198;BME280;57582;-34.876;138.628;2022-09-29T09:17:55;102119;;;16.36;51.98
70198;BME280;57582;-34.876;138.628;2022-09-29T09:21:06;102118;;;16.53;51.37
70198;BME280;57582;-34.876;138.628;2022-09-29T09:23:57;102129;;;16.59;51.01
70198;BME280;57582;-34.876;138.628;2022-09-29T09:26:49;102130;;;16.64;51.24
70198;BME280;57582;-34.876;138.628;2022-09-29T09:29:50;102134;;;16.69;51.16
70198;BME280;57582;-34.876;138.628;2022-09-29T09:32:58;102131;;;16.79;50.95
70198;BME280;57582;-34.876;138.628;2022-09-29T09:35:51;102136;;;16.57;51.27
70198;BME280;57582;-34.876;138.628;2022-09-29T09:38:53;102150;;;16.43;51.84
70198;BME280;57582;-34.876;138.628;2022-09-29T09:41:50;102154;;;16.36;52.16
70198;BME280;57582;-34.876;138.628;2022-09-29T09:44:52;102156;;;16.29;52.47
70198;BME280;57582;-34.876;138.628;2022-09-29T09:47:50;102154;;;16.31;52.59
70198;BME280;57582;-34.876;138.628;2022-09-29T09:50:49;102148;;;16.37;52.56
70198;BME280;57582;-34.876;138.628;2022-09-29T09:53:50;102149;;;16.44;52.54
70198;BME280;57582;-34.876;138.628;2022-09-29T09:57:01;102158;;;16.43;52.67
70198;BME280;57582;-34.876;138.628;2022-09-29T10:00:21;102159;;;16.47;52.73
70198;BME280;57582;-34.876;138.628;2022-09-29T10:02:50;102170;;;16.50;52.83
70198;BME280;57582;-34.876;138.628;2022-09-29T10:05:50;102172;;;16.50;52.61
70198;BME280;57582;-34.876;138.628;2022-09-29T10:08:50;102179;;;16.44;53.02
70198;BME280;57582;-34.876;138.628;2022-09-29T10:11:49;102179;;;16.44;53.23
70198;BME280;57582;-34.876;138.628;2022-09-29T10:17:55;102175;;;16.48;53.22
70198;BME280;57582;-34.876;138.628;2022-09-29T10:20:50;102167;;;16.50;53.31
70198;BME280;57582;-34.876;138.628;2022-09-29T10:23:50;102172;;;16.46;53.43
70198;BME280;57582;-34.876;138.628;2022-09-29T10:26:51;102182;;;16.49;53.32
70198;BME280;57582;-34.876;138.628;2022-09-29T10:29:50;102181;;;16.47;53.60
70198;BME280;57582;-34.876;138.628;2022-09-29T10:32:51;102178;;;16.34;53.97
70198;BME280;57582;-34.876;138.628;2022-09-29T10:35:50;102180;;;16.27;54.31
70198;BME280;57582;-34.876;138.628;2022-09-29T10:38:50;102185;;;16.24;54.11
70198;BME280;57582;-34.876;138.628;2022-09-29T10:41:50;102186;;;16.14;54.43
70198;BME280;57582;-34.876;138.628;2022-09-29T10:44:53;102182;;;16.09;55.03
70198;BME280;57582;-34.876;138.628;2022-09-29T10:50:57;102187;;;16.12;54.70
70198;BME280;57582;-34.876;138.628;2022-09-29T10:53:50;102193;;;16.06;54.92
70198;BME280;57582;-34.876;138.628;2022-09-29T10:56:50;102188;;;16.05;55.08
70198;BME280;57582;-34.876;138.628;2022-09-29T10:59:50;102189;;;16.05;55.07
70198;BME280;57582;-34.876;138.628;2022-09-29T11:02:49;102202;;;16.00;55.12
70198;BME280;57582;-34.876;138.628;2022-09-29T11:05:53;102206;;;15.97;55.00
70198;BME280;57582;-34.876;138.628;2022-09-29T11:09:06;102209;;;15.99;55.20
70198;BME280;57582;-34.876;138.628;2022-09-29T11:11:53;102212;;;15.97;55.50
70198;BME280;57582;-34.876;138.628;2022-09-29T11:14:49;102211;;;15.99;56.36
70198;BME280;57582;-34.876;138.628;2022-09-29T11:17:50;102216;;;16.02;56.52
70198;BME280;57582;-34.876;138.628;2022-09-29T11:20:52;102224;;;16.21;56.34
70198;BME280;57582;-34.876;138.628;2022-09-29T11:24:06;102225;;;16.41;55.05
70198;BME280;57582;-34.876;138.628;2022-09-29T11:27:09;102232;;;16.61;55.23
70198;BME280;57582;-34.876;138.628;2022-09-29T11:30:08;102235;;;16.79;53.99
70198;BME280;57582;-34.876;138.628;2022-09-29T11:38:52;102241;;;16.99;53.27
70198;BME280;57582;-34.876;138.628;2022-09-29T11:48:05;102239;;;17.10;52.72
70198;BME280;57582;-34.876;138.628;2022-09-29T11:54:02;102230;;;17.10;52.59
70198;BME280;57582;-34.876;138.628;2022-09-29T11:56:57;102232;;;17.00;52.91
70198;BME280;57582;-34.876;138.628;2022-09-29T12:02:54;102246;;;16.85;53.82
70198;BME280;57582;-34.876;138.628;2022-09-29T12:09:01;102242;;;16.88;53.57
70198;BME280;57582;-34.876;138.628;2022-09-29T12:17:51;102244;;;16.62;54.28
70198;BME280;57582;-34.876;138.628;2022-09-29T12:20:51;102245;;;16.53;55.03
70198;BME280;57582;-34.876;138.628;2022-09-29T12:23:50;102246;;;16.50;54.41
70198;BME280;57582;-34.876;138.628;2022-09-29T12:26:49;102249;;;16.26;55.55
70198;BME280;57582;-34.876;138.628;2022-09-29T12:30:00;102243;;;16.33;55.34
70198;BME280;57582;-34.876;138.628;2022-09-29T12:32:53;102251;;;16.27;55.29
70198;BME280;57582;-34.876;138.628;2022-09-29T12:38:50;102246;;;16.34;55.24
70198;BME280;57582;-34.876;138.628;2022-09-29T12:41:52;102240;;;16.37;54.63
70198;BME280;57582;-34.876;138.628;2022-09-29T12:44:56;102237;;;16.09;55.19
70198;BME280;57582;-34.876;138.628;2022-09-29T12:47:53;102236;;;15.96;55.96
70198;BME280;57582;-34.876;138.628;2022-09-29T12:50:52;102230;;;15.87;56.15
70198;BME280;57582;-34.876;138.628;2022-09-29T12:59:54;102219;;;15.54;57.21
70198;BME280;57582;-34.876;138.628;2022-09-29T13:02:58;102215;;;15.50;58.36
70198;BME280;57582;-34.876;138.628;2022-09-29T13:05:53;102218;;;15.44;59.72
70198;BME280;57582;-34.876;138.628;2022-09-29T13:24:00;102202;;;16.24;55.49
70198;BME280;57582;-34.876;138.628;2022-09-29T13:26:57;102204;;;16.30;55.48
70198;BME280;57582;-34.876;138.628;2022-09-29T13:29:53;102205;;;16.39;54.81
70198;BME280;57582;-34.876;138.628;2022-09-29T13:32:57;102209;;;16.28;54.45
70198;BME280;57582;-34.876;138.628;2022-09-29T13:35:50;102198;;;16.10;55.22
70198;BME280;57582;-34.876;138.628;2022-09-29T13:38:52;102199;;;16.16;54.45
70198;BME280;57582;-34.876;138.628;2022-09-29T13:41:52;102194;;;16.29;54.51
70198;BME280;57582;-34.876;138.628;2022-09-29T13:47:50;102191;;;16.43;53.39
70198;BME280;57582;-34.876;138.628;2022-09-29T13:50:50;102180;;;16.32;54.46
70198;BME280;57582;-34.876;138.628;2022-09-29T13:56:58;102168;;;16.38;53.39
70198;BME280;57582;-34.876;138.628;2022-09-29T14:03:05;102155;;;15.91;54.50
70198;BME280;57582;-34.876;138.628;2022-09-29T14:05:55;102153;;;15.90;53.58
70198;BME280;57582;-34.876;138.628;2022-09-29T14:11:51;102148;;;15.81;54.31
70198;BME280;57582;-34.876;138.628;2022-09-29T14:14:51;102149;;;15.77;54.53
70198;BME280;57582;-34.876;138.628;2022-09-29T14:17:53;102150;;;15.74;54.77
70198;BME280;57582;-34.876;138.628;2022-09-29T14:20:59;102144;;;15.33;56.25
70198;BME280;57582;-34.876;138.628;2022-09-29T14:23:50;102131;;;15.22;57.26
70198;BME280;57582;-34.876;138.628;2022-09-29T14:26:50;102130;;;15.17;57.80
70198;BME280;57582;-34.876;138.628;2022-09-29T14:30:00;102126;;;15.02;58.28
70198;BME280;57582;-34.876;138.628;2022-09-29T14:32:52;102129;;;15.00;57.79
70198;BME280;57582;-34.876;138.628;2022-09-29T14:38:50;102135;;;14.96;59.46
70198;BME280;57582;-34.876;138.628;2022-09-29T14:41:50;102134;;;15.00;58.58
70198;BME280;57582;-34.876;138.628;2022-09-29T14:44:50;102120;;;14.87;59.20
70198;BME280;57582;-34.876;138.628;2022-09-29T14:47:54;102112;;;14.82;59.30
70198;BME280;57582;-34.876;138.628;2022-09-29T14:50:57;102116;;;14.75;59.75
70198;BME280;57582;-34.876;138.628;2022-09-29T15:11:51;102098;;;14.37;60.05
70198;BME280;57582;-34.876;138.628;2022-09-29T15:14:50;102099;;;14.33;59.89
70198;BME280;57582;-34.876;138.628;2022-09-29T15:17:52;102097;;;14.14;60.88
70198;BME280;57582;-34.876;138.628;2022-09-29T15:21:06;102101;;;14.13;60.70
70198;BME280;57582;-34.876;138.628;2022-09-29T15:26:50;102060;;;13.73;61.50
70198;BME280;57582;-34.876;138.628;2022-09-29T15:29:53;102081;;;13.77;62.57
70198;BME280;57582;-34.876;138.628;2022-09-29T15:32:50;102070;;;13.80;61.56
70198;BME280;57582;-34.876;138.628;2022-09-29T15:35:52;102062;;;13.80;62.10
70198;BME280;57582;-34.876;138.628;2022-09-29T15:38:51;102062;;;13.72;62.98
70198;BME280;57582;-34.876;138.628;2022-09-29T15:41:58;102058;;;13.76;62.21
70198;BME280;57582;-34.876;138.628;2022-09-29T15:44:52;102063;;;13.79;62.41
70198;BME280;57582;-34.876;138.628;2022-09-29T15:47:57;102055;;;13.78;62.04
70198;BME280;57582;-34.876;138.628;2022-09-29T15:50:50;102055;;;13.76;61.70
70198;BME280;57582;-34.876;138.628;2022-09-29T15:53:50;102047;;;13.78;60.83
70198;BME280;57582;-34.876;138.628;2022-09-29T15:56:50;102048;;;13.81;61.03
70198;BME280;57582;-34.876;138.628;2022-09-29T16:05:55;102055;;;13.76;61.40
70198;BME280;57582;-34.876;138.628;2022-09-29T16:08:52;102053;;;13.68;61.68
70198;BME280;57582;-34.876;138.628;2022-09-29T16:11:50;102039;;;13.60;61.95
70198;BME280;57582;-34.876;138.628;2022-09-29T16:14:52;102032;;;13.59;62.03
70198;BME280;57582;-34.876;138.628;2022-09-29T16:17:51;102033;;;13.53;62.28
70198;BME280;57582;-34.876;138.628;2022-09-29T16:20:50;102033;;;13.53;61.88
70198;BME280;57582;-34.876;138.628;2022-09-29T16:26:50;102028;;;13.26;63.39
70198;BME280;57582;-34.876;138.628;2022-09-29T16:30:03;102027;;;13.27;63.43
70198;BME280;57582;-34.876;138.628;2022-09-29T16:32:55;102028;;;13.31;63.21
70198;BME280;57582;-34.876;138.628;2022-09-29T16:38:50;102039;;;13.17;63.10
70198;BME280;57582;-34.876;138.628;2022-09-29T16:41:52;102037;;;13.04;63.36
70198;BME280;57582;-34.876;138.628;2022-09-29T16:44:50;102031;;;13.11;63.58
70198;BME280;57582;-34.876;138.628;2022-09-29T16:47:52;102040;;;13.13;62.46
70198;BME280;57582;-34.876;138.628;2022-09-29T16:50:53;102041;;;13.10;63.11
70198;BME280;57582;-34.876;138.628;2022-09-29T16:53:51;102032;;;13.11;62.29
70198;BME280;57582;-34.876;138.628;2022-09-29T16:57:08;102027;;;13.08;62.33
70198;BME280;57582;-34.876;138.628;2022-09-29T16:59:54;102031;;;13.10;62.61
70198;BME280;57582;-34.876;138.628;2022-09-29T17:02:51;102023;;;12.72;63.97
70198;BME280;57582;-34.876;138.628;2022-09-29T17:05:51;102014;;;12.75;63.62
70198;BME280;57582;-34.876;138.628;2022-09-29T17:08:50;102020;;;12.75;63.46
70198;BME280;57582;-34.876;138.628;2022-09-29T17:11:50;102014;;;12.68;64.18
70198;BME280;57582;-34.876;138.628;2022-09-29T17:14:50;102016;;;12.67;64.28
70198;BME280;57582;-34.876;138.628;2022-09-29T17:17:51;102010;;;12.63;64.32
70198;BME280;57582;-34.876;138.628;2022-09-29T17:20:51;102012;;;12.61;64.45
70198;BME280;57582;-34.876;138.628;2022-09-29T17:23:50;102013;;;12.63;63.82
70198;BME280;57582;-34.876;138.628;2022-09-29T17:26:50;102024;;;12.61;63.65
70198;BME280;57582;-34.876;138.628;2022-09-29T17:29:51;102018;;;12.58;64.05
70198;BME280;57582;-34.876;138.628;2022-09-29T17:32:52;102025;;;12.57;63.94
70198;BME280;57582;-34.876;138.628;2022-09-29T17:35:50;102027;;;12.52;64.07
70198;BME280;57582;-34.876;138.628;2022-09-29T17:38:50;102028;;;12.51;64.12
70198;BME280;57582;-34.876;138.628;2022-09-29T17:41:51;102029;;;12.55;63.62
70198;BME280;57582;-34.876;138.628;2022-09-29T17:44:50;102030;;;12.57;63.07
70198;BME280;57582;-34.876;138.628;2022-09-29T17:47:50;102027;;;12.60;63.23
70198;BME280;57582;-34.876;138.628;2022-09-29T17:50:51;102029;;;12.63;63.37
70198;BME280;57582;-34.876;138.628;2022-09-29T17:53:51;102031;;;12.64;63.26
70198;BME280;57582;-34.876;138.628;2022-09-29T17:56:50;102023;;;12.56;63.09
70198;BME280;57582;-34.876;138.628;2022-09-29T17:59:50;102020;;;12.54;63.55
70198;BME280;57582;-34.876;138.628;2022-09-29T18:02:50;102024;;;12.52;63.94
70198;BME280;57582;-34.876;138.628;2022-09-29T18:05:52;102023;;;12.47;63.46
70198;BME280;57582;-34.876;138.628;2022-09-29T18:08:51;102033;;;12.45;65.14
70198;BME280;57582;-34.876;138.628;2022-09-29T18:11:50;102043;;;12.31;66.25